Time;durP1;ratioP1;P1;durP2;ratioP2;P2;SDS_P1;SDS_P2;PMS_P1;PMS_P2;Temp;Humidity;BMP_temperature;BMP_pressure;BME280_temperature;BME280_humidity;BME280_pressure;Samples;Min_cycle;Max_cycle;Signal;HPM_P1;HPM_P2
2022/11/13 00:00:43;;;;;;;;;;;;;;;9.80;100.00;101479.97;6307910;22;19918;-83
2022/11/13 00:03:28;;;;;;;;;;;;;;;9.49;100.00;101483.56;6307457;22;20261;-85
2022/11/13 00:06:13;;;;;;;;;;;;;;;9.35;100.00;101486.53;6307515;22;19936;-86
2022/11/13 00:08:57;;;;;;;;;;;;;;;9.41;100.00;101487.84;6307953;22;20016;-84
2022/11/13 00:11:41;;;;;;;;;;;;;;;9.60;100.00;101486.13;6307540;22;19956;-84
2022/11/13 00:14:25;;;;;;;;;;;;;;;9.65;100.00;101483.91;6307817;22;19964;-85
2022/11/13 00:17:09;;;;;;;;;;;;;;;9.41;100.00;101485.22;6307411;22;20276;-83
2022/11/13 00:19:53;;;;;;;;;;;;;;;9.63;100.00;101480.56;6307590;22;20337;-85
2022/11/13 00:22:36;;;;;;;;;;;;;;;9.60;100.00;101475.56;6307547;22;19953;-85
2022/11/13 00:25:21;;;;;;;;;;;;;;;9.47;100.00;101469.66;6309221;22;19964;-86
2022/11/13 00:28:04;;;;;;;;;;;;;;;9.33;100.00;101470.81;6309574;22;19963;-86
2022/11/13 00:30:48;;;;;;;;;;;;;;;9.23;100.00;101471.72;6309642;22;20322;-86
2022/11/13 00:33:32;;;;;;;;;;;;;;;9.13;100.00;101471.66;6309337;22;20341;-85
2022/11/13 00:36:19;;;;;;;;;;;;;;;9.10;100.00;101468.44;6309603;22;20305;-86
2022/11/13 00:39:02;;;;;;;;;;;;;;;8.99;100.00;101463.22;6309125;22;19964;-86
2022/11/13 00:41:46;;;;;;;;;;;;;;;9.02;100.00;101458.50;6309668;22;19918;-84
2022/11/13 00:44:30;;;;;;;;;;;;;;;9.10;100.00;101460.50;6309309;22;19922;-84
2022/11/13 00:47:14;;;;;;;;;;;;;;;9.20;100.00;101456.13;6309586;22;19963;-84
2022/11/13 00:49:58;;;;;;;;;;;;;;;9.53;100.00;101452.38;6309801;22;19972;-82
2022/11/13 00:52:42;;;;;;;;;;;;;;;9.71;100.00;101456.91;6309797;22;19964;-84
2022/11/13 00:55:26;;;;;;;;;;;;;;;9.53;100.00;101453.22;6310447;22;19918;-84
2022/11/13 00:58:10;;;;;;;;;;;;;;;9.44;100.00;101464.63;6311092;22;19917;-84
2022/11/13 01:00:54;;;;;;;;;;;;;;;9.41;100.00;101449.00;6324856;22;19955;-84
2022/11/13 01:03:38;;;;;;;;;;;;;;;9.47;100.00;101442.34;6324477;22;19922;-83
2022/11/13 01:06:24;;;;;;;;;;;;;;;9.32;100.00;101444.47;6314153;22;19955;-83
2022/11/13 01:09:08;;;;;;;;;;;;;;;9.28;100.00;101446.56;6318756;22;20011;-84
2022/11/13 01:11:52;;;;;;;;;;;;;;;9.30;100.00;101446.44;6319013;22;19917;-85
2022/11/13 01:14:36;;;;;;;;;;;;;;;9.33;100.00;101446.16;6322522;22;19932;-84
2022/11/13 01:17:20;;;;;;;;;;;;;;;9.47;100.00;101451.13;6320483;22;19918;-83
2022/11/13 01:20:04;;;;;;;;;;;;;;;9.52;100.00;101440.97;6316696;22;19941;-84
2022/11/13 01:22:48;;;;;;;;;;;;;;;9.44;100.00;101442.59;6313793;22;19994;-83
2022/11/13 01:25:32;;;;;;;;;;;;;;;9.43;100.00;101444.41;6308948;22;19957;-84
2022/11/13 01:28:16;;;;;;;;;;;;;;;9.36;100.00;101437.97;6308937;22;20221;-84
2022/11/13 01:31:03;;;;;;;;;;;;;;;9.29;100.00;101435.00;6308655;22;19918;-84
2022/11/13 01:33:48;;;;;;;;;;;;;;;9.28;100.00;101443.91;6308340;22;20041;-85
2022/11/13 01:36:32;;;;;;;;;;;;;;;9.31;100.00;101432.25;6308516;22;19917;-84
2022/11/13 01:39:16;;;;;;;;;;;;;;;9.23;100.00;101430.25;6308390;22;20096;-85
2022/11/13 01:41:59;;;;;;;;;;;;;;;9.49;100.00;101424.50;6308220;22;19972;-84
2022/11/13 01:44:45;;;;;;;;;;;;;;;9.48;100.00;101423.66;6308469;22;20002;-84
2022/11/13 01:47:30;;;;;;;;;;;;;;;9.52;100.00;101419.78;6308264;22;19918;-83
2022/11/13 01:50:14;;;;;;;;;;;;;;;9.55;100.00;101408.09;6308161;22;19921;-84
2022/11/13 01:52:58;;;;;;;;;;;;;;;9.25;100.00;101414.22;6308365;22;19917;-84
2022/11/13 01:55:42;;;;;;;;;;;;;;;9.16;100.00;101418.53;6308102;22;19917;-85
2022/11/13 01:58:26;;;;;;;;;;;;;;;9.28;100.00;101406.03;6308575;22;19933;-83
2022/11/13 02:01:10;;;;;;;;;;;;;;;9.35;100.00;101410.66;6308150;22;19918;-84
2022/11/13 02:03:54;;;;;;;;;;;;;;;9.33;100.00;101403.84;6308240;22;19922;-84
2022/11/13 02:06:41;;;;;;;;;;;;;;;9.35;100.00;101408.03;6308238;22;19918;-83
2022/11/13 02:09:27;;;;;;;;;;;;;;;9.35;100.00;101412.47;6308239;22;19918;-83
2022/11/13 02:12:26;;;;;;;;;;;;;;;9.33;100.00;101403.84;6308100;22;19925;-85
2022/11/13 02:15:10;;;;;;;;;;;;;;;9.50;100.00;101397.09;6308112;22;19922;-84
2022/11/13 02:17:55;;;;;;;;;;;;;;;9.33;100.00;101401.19;6308916;22;19952;-84
2022/11/13 02:20:59;;;;;;;;;;;;;;;9.38;100.00;101401.63;6308437;22;19938;-84
2022/11/13 02:23:54;;;;;;;;;;;;;;;9.21;100.00;101405.72;6308718;22;19956;-84
2022/11/13 02:26:38;;;;;;;;;;;;;;;9.39;100.00;101405.94;6309333;22;19957;-83
2022/11/13 02:29:22;;;;;;;;;;;;;;;9.28;100.00;101409.53;6310736;22;19952;-85
2022/11/13 02:32:06;;;;;;;;;;;;;;;9.23;100.00;101409.09;6315661;22;19937;-84
2022/11/13 02:34:50;;;;;;;;;;;;;;;9.08;100.00;101399.81;6328633;22;19937;-85
2022/11/13 02:37:34;;;;;;;;;;;;;;;9.24;100.00;101399.34;6328218;22;19918;-85
2022/11/13 02:40:18;;;;;;;;;;;;;;;9.13;100.00;101396.78;6328826;22;19937;-84
2022/11/13 02:43:03;;;;;;;;;;;;;;;9.13;100.00;101396.78;6328888;22;19916;-84
2022/11/13 02:45:47;;;;;;;;;;;;;;;8.78;100.00;101408.53;6307965;22;19917;-84
2022/11/13 02:48:31;;;;;;;;;;;;;;;8.66;100.00;101404.28;6315976;22;19972;-84
2022/11/13 02:51:14;;;;;;;;;;;;;;;8.52;100.00;101401.94;6309832;22;19965;-84
2022/11/13 02:53:58;;;;;;;;;;;;;;;8.48;100.00;101389.13;6307893;22;20199;-81
2022/11/13 02:56:43;;;;;;;;;;;;;;;8.56;100.00;101392.81;6307644;22;19998;-84
2022/11/13 02:59:26;;;;;;;;;;;;;;;8.62;100.00;101394.94;6307803;22;19933;-85
2022/11/13 03:02:10;;;;;;;;;;;;;;;8.58;100.00;101390.91;6307633;22;19921;-84
2022/11/13 03:04:54;;;;;;;;;;;;;;;8.52;100.00;101396.66;6307428;22;19956;-84
2022/11/13 03:07:39;;;;;;;;;;;;;;;8.41;100.00;101396.72;6307593;22;19917;-84
2022/11/13 03:10:23;;;;;;;;;;;;;;;8.34;100.00;101397.34;6307576;22;19917;-84
2022/11/13 03:13:06;;;;;;;;;;;;;;;8.22;100.00;101392.06;6307613;22;20014;-84
2022/11/13 03:15:50;;;;;;;;;;;;;;;8.31;100.00;101393.16;6284294;22;19941;-83
2022/11/13 03:18:34;;;;;;;;;;;;;;;8.22;100.00;101391.22;6307467;22;19917;-84
2022/11/13 03:21:18;;;;;;;;;;;;;;;8.35;100.00;101391.13;6307501;22;19933;-86
2022/11/13 03:24:02;;;;;;;;;;;;;;;8.19;100.00;101394.97;6307449;22;19922;-86
2022/11/13 03:26:46;;;;;;;;;;;;;;;8.04;100.00;101390.94;6307391;22;20250;-84
2022/11/13 03:29:30;;;;;;;;;;;;;;;7.92;100.00;101385.84;6307701;22;19964;-84
2022/11/13 03:32:14;;;;;;;;;;;;;;;7.96;100.00;101380.16;6307262;22;19961;-84
2022/11/13 03:34:58;;;;;;;;;;;;;;;8.03;100.00;101378.72;6307224;22;19960;-84
2022/11/13 03:37:42;;;;;;;;;;;;;;;8.17;100.00;101386.34;6307445;22;20284;-84
2022/11/13 03:40:26;;;;;;;;;;;;;;;8.24;100.00;101384.03;6307554;22;19968;-83
2022/11/13 03:43:10;;;;;;;;;;;;;;;8.35;100.00;101389.31;6307283;22;19918;-84
2022/11/13 03:45:54;;;;;;;;;;;;;;;8.16;100.00;101397.03;6307364;22;19918;-86
2022/11/13 03:48:37;;;;;;;;;;;;;;;8.28;100.00;101393.44;6307408;22;20352;-83
2022/11/13 03:51:21;;;;;;;;;;;;;;;8.10;100.00;101389.59;6307477;22;19992;-85
2022/11/13 03:54:05;;;;;;;;;;;;;;;8.07;100.00;101389.84;6307590;22;19918;-83
2022/11/13 03:56:49;;;;;;;;;;;;;;;8.11;100.00;101389.50;6309152;22;19922;-83
2022/11/13 03:59:33;;;;;;;;;;;;;;;7.98;100.00;101383.53;6309561;22;20152;-85
2022/11/13 04:02:17;;;;;;;;;;;;;;;8.21;100.00;101382.50;6309501;22;19930;-83
2022/11/13 04:05:01;;;;;;;;;;;;;;;8.13;100.00;101386.72;6309548;22;20016;-84
2022/11/13 04:07:45;;;;;;;;;;;;;;;8.20;100.00;101390.53;6309731;22;19922;-84
2022/11/13 04:10:29;;;;;;;;;;;;;;;8.19;100.00;101383.56;6309526;22;19918;-85
2022/11/13 04:13:13;;;;;;;;;;;;;;;8.07;100.00;101381.94;6309349;22;19917;-83
2022/11/13 04:15:56;;;;;;;;;;;;;;;8.32;100.00;101381.63;6309260;22;19933;-85
2022/11/13 04:18:40;;;;;;;;;;;;;;;8.10;100.00;101384.31;6309055;22;20337;-84
2022/11/13 04:21:24;;;;;;;;;;;;;;;8.32;100.00;101384.25;6309375;22;20391;-83
2022/11/13 04:24:08;;;;;;;;;;;;;;;8.53;100.00;101389.56;6309311;22;19917;-83
2022/11/13 04:26:52;;;;;;;;;;;;;;;8.31;100.00;101382.59;6309287;22;19918;-83
2022/11/13 04:29:36;;;;;;;;;;;;;;;8.13;100.00;101389.34;6315686;22;19964;-83
2022/11/13 04:32:20;;;;;;;;;;;;;;;8.17;100.00;101386.34;6314182;22;19941;-84
2022/11/13 04:35:04;;;;;;;;;;;;;;;8.24;100.00;101386.69;6309493;22;19933;-84
2022/11/13 04:37:48;;;;;;;;;;;;;;;8.21;100.00;101382.50;6309085;22;19963;-83
2022/11/13 04:40:32;;;;;;;;;;;;;;;8.14;100.00;101380.47;6308986;22;20295;-83
2022/11/13 04:43:16;;;;;;;;;;;;;;;8.04;100.00;101382.19;6309083;22;20293;-85
2022/11/13 04:46:00;;;;;;;;;;;;;;;8.16;100.00;101378.53;6308853;22;20406;-85
2022/11/13 04:48:43;;;;;;;;;;;;;;;8.20;100.00;101379.97;6309173;22;20418;-84
2022/11/13 04:51:28;;;;;;;;;;;;;;;8.09;100.00;101380.00;6308919;22;19961;-84
2022/11/13 04:54:11;;;;;;;;;;;;;;;8.12;100.00;101387.69;6308691;22;20282;-83
2022/11/13 04:56:55;;;;;;;;;;;;;;;8.20;100.00;101377.31;6308824;22;20254;-86
2022/11/13 04:59:39;;;;;;;;;;;;;;;8.37;100.00;101371.53;6308942;22;20245;-83
2022/11/13 05:02:23;;;;;;;;;;;;;;;8.30;100.00;101365.91;6308794;22;19922;-83
2022/11/13 05:05:07;;;;;;;;;;;;;;;8.26;100.00;101367.09;6308761;22;19933;-86
2022/11/13 05:07:51;;;;;;;;;;;;;;;8.13;100.00;101373.50;6308936;22;19956;-83
2022/11/13 05:10:35;;;;;;;;;;;;;;;7.98;100.00;101366.84;6308566;22;19917;-83
2022/11/13 05:13:19;;;;;;;;;;;;;;;8.10;100.00;101374.59;6309710;22;19965;-84
2022/11/13 05:16:07;;;;;;;;;;;;;;;8.07;100.00;101372.22;6310561;22;19917;-85
2022/11/13 05:18:51;;;;;;;;;;;;;;;8.02;100.00;101374.38;6308473;22;19933;-84
2022/11/13 05:21:36;;;;;;;;;;;;;;;7.87;100.00;101367.72;6285637;22;20002;-83
2022/11/13 05:24:20;;;;;;;;;;;;;;;8.02;100.00;101360.38;6308883;22;20240;-85
2022/11/13 05:27:04;;;;;;;;;;;;;;;7.96;100.00;101368.75;6308879;22;20379;-84
2022/11/13 05:29:48;;;;;;;;;;;;;;;8.07;100.00;101387.22;6285465;22;19972;-84
2022/11/13 05:32:32;;;;;;;;;;;;;;;8.16;100.00;101378.53;6308845;22;20332;-85
2022/11/13 05:35:16;;;;;;;;;;;;;;;8.03;100.00;101380.50;6309236;22;19980;-84
2022/11/13 05:38:00;;;;;;;;;;;;;;;8.17;100.00;101377.59;6308721;22;19918;-85
2022/11/13 05:40:44;;;;;;;;;;;;;;;8.13;100.00;101386.72;6308315;22;20245;-84
2022/11/13 05:43:28;;;;;;;;;;;;;;;8.08;100.00;101373.06;6308700;22;19917;-84
2022/11/13 05:46:18;;;;;;;;;;;;;;;8.12;100.00;101377.13;6308576;22;20309;-85
2022/11/13 05:49:03;;;;;;;;;;;;;;;7.84;100.00;101391.72;6308859;22;20376;-84
2022/11/13 05:51:47;;;;;;;;;;;;;;;7.70;100.00;101384.91;6308506;22;19961;-82
2022/11/13 05:54:31;;;;;;;;;;;;;;;7.75;100.00;101384.53;6308300;22;19918;-83
2022/11/13 05:57:14;;;;;;;;;;;;;;;7.75;100.00;101392.47;6308533;22;20002;-84
2022/11/13 05:59:58;;;;;;;;;;;;;;;7.65;100.00;101395.00;6308239;22;19957;-84
2022/11/13 06:02:42;;;;;;;;;;;;;;;7.56;100.00;101398.34;6308497;22;19930;-86
2022/11/13 06:05:26;;;;;;;;;;;;;;;7.51;100.00;101394.41;6308630;22;19956;-85
2022/11/13 06:08:10;;;;;;;;;;;;;;;7.41;100.00;101391.66;6309787;22;19918;-83
2022/11/13 06:11:01;;;;;;;;;;;;;;;7.59;100.00;101394.66;6312628;22;19917;-83
2022/11/13 06:13:46;;;;;;;;;;;;;;;7.56;100.00;101389.59;6316520;22;19968;-87
2022/11/13 06:16:34;;;;;;;;;;;;;;;7.76;100.00;101394.13;6320805;22;19918;-91
2022/11/13 06:19:18;;;;;;;;;;;;;;;7.82;100.00;101399.75;6321612;22;20272;-86
2022/11/13 06:22:02;;;;;;;;;;;;;;;7.77;100.00;101396.66;6306186;22;19909;-90
2022/11/13 06:24:52;;;;;;;;;;;;;;;7.92;100.00;101399.03;6309865;22;19947;-90
2022/11/13 06:27:37;;;;;;;;;;;;;;;8.00;100.00;101404.50;6332360;22;19913;-92
2022/11/13 06:30:21;;;;;;;;;;;;;;;7.88;100.00;101400.22;6306502;22;19921;-88
2022/11/13 06:33:05;;;;;;;;;;;;;;;8.09;100.00;101395.84;6306430;22;19918;-87
2022/11/13 06:35:49;;;;;;;;;;;;;;;8.15;100.00;101403.28;6330248;22;19946;-86
2022/11/13 06:38:34;;;;;;;;;;;;;;;8.27;100.00;101411.03;6318376;22;19933;-85
2022/11/13 06:41:19;;;;;;;;;;;;;;;8.14;100.00;101417.44;6293781;22;19960;-85
2022/11/13 06:44:07;;;;;;;;;;;;;;;8.07;100.00;101416.25;6319927;22;19973;-83
2022/11/13 06:46:51;;;;;;;;;;;;;;;8.35;100.00;101420.16;6324195;22;19980;-88
2022/11/13 06:49:35;;;;;;;;;;;;;;;8.27;100.00;101424.25;6324204;22;19918;-85
2022/11/13 06:52:19;;;;;;;;;;;;;;;8.40;100.00;101426.75;6322636;22;19918;-85
2022/11/13 06:55:03;;;;;;;;;;;;;;;8.35;100.00;101423.66;6296171;22;19934;-85
2022/11/13 06:57:48;;;;;;;;;;;;;;;8.52;100.00;101423.09;6323821;22;19942;-86
2022/11/13 07:00:33;;;;;;;;;;;;;;;8.48;100.00;101423.47;6298647;22;19922;-86
2022/11/13 07:03:20;;;;;;;;;;;;;;;8.43;100.00;101434.41;6303200;22;19918;-87
2022/11/13 07:06:06;;;;;;;;;;;;;;;8.39;100.00;101432.97;6298447;22;19986;-85
2022/11/13 07:08:50;;;;;;;;;;;;;;;8.63;100.00;101438.91;6309870;22;19972;-85
2022/11/13 07:11:34;;;;;;;;;;;;;;;8.46;100.00;101444.72;6308640;22;19937;-84
2022/11/13 07:14:18;;;;;;;;;;;;;;;8.17;100.00;101448.88;6308978;22;20417;-84
2022/11/13 07:17:02;;;;;;;;;;;;;;;8.10;100.00;101448.53;6308853;22;19934;-88
2022/11/13 07:19:46;;;;;;;;;;;;;;;8.23;100.00;101449.22;6309283;22;19918;-87
2022/11/13 07:22:30;;;;;;;;;;;;;;;8.37;100.00;101461.34;6308066;22;19930;-87
2022/11/13 07:25:14;;;;;;;;;;;;;;;8.48;100.00;101463.09;6308537;22;20328;-87
2022/11/13 07:27:58;;;;;;;;;;;;;;;8.68;100.00;101452.53;6265128;22;19941;-87
2022/11/13 07:30:45;;;;;;;;;;;;;;;9.60;100.00;101459.69;6309481;22;19932;-88
2022/11/13 07:33:32;;;;;;;;;;;;;;;10.49;100.00;101464.09;6310059;22;19918;-84
2022/11/13 07:36:16;;;;;;;;;;;;;;;11.12;100.00;101478.59;6309596;22;19921;-82
2022/11/13 07:39:00;;;;;;;;;;;;;;;11.07;100.00;101487.97;6310616;22;19957;-87
2022/11/13 07:41:46;;;;;;;;;;;;;;;11.00;100.00;101497.47;6310626;22;19922;-86
2022/11/13 07:44:30;;;;;;;;;;;;;;;10.63;100.00;101495.50;6310774;22;19983;-91
2022/11/13 07:47:14;;;;;;;;;;;;;;;11.56;100.00;101498.31;6314707;22;19957;-87
2022/11/13 07:49:59;;;;;;;;;;;;;;;11.97;100.00;101501.53;6312713;22;19917;-85
2022/11/13 07:52:43;;;;;;;;;;;;;;;11.96;100.00;101510.50;6309815;22;19957;-89
2022/11/13 07:55:27;;;;;;;;;;;;;;;12.09;100.00;101521.63;6309594;22;19918;-87
2022/11/13 07:58:14;;;;;;;;;;;;;;;11.65;100.00;101531.13;6308411;22;20238;-87
2022/11/13 08:01:05;;;;;;;;;;;;;;;11.25;100.00;101526.03;6308962;22;19941;-87
2022/11/13 08:03:49;;;;;;;;;;;;;;;11.05;100.00;101521.72;6308935;22;19996;-85
2022/11/13 08:06:35;;;;;;;;;;;;;;;11.36;100.00;101525.91;6308550;22;19917;-85
2022/11/13 08:09:19;;;;;;;;;;;;;;;11.19;100.00;101531.94;6309520;22;19918;-85
2022/11/13 08:12:03;;;;;;;;;;;;;;;10.97;100.00;101511.81;6286138;22;19944;-87
2022/11/13 08:14:47;;;;;;;;;;;;;;;11.01;100.00;101521.19;6311936;22;19922;-86
2022/11/13 08:17:30;;;;;;;;;;;;;;;11.14;100.00;101529.69;6319311;22;19921;-85
2022/11/13 08:20:14;;;;;;;;;;;;;;;11.45;100.00;101526.84;6309791;22;19937;-88
2022/11/13 08:22:59;;;;;;;;;;;;;;;11.69;100.00;101524.56;6333613;22;19933;-86
2022/11/13 08:25:44;;;;;;;;;;;;;;;11.52;100.00;101522.63;6335145;22;19941;-87
2022/11/13 08:28:28;;;;;;;;;;;;;;;11.51;100.00;101519.16;6322829;22;19938;-86
2022/11/13 08:31:13;;;;;;;;;;;;;;;11.69;100.00;101514.78;6287278;22;19964;-86
2022/11/13 08:33:58;;;;;;;;;;;;;;;11.69;100.00;101512.13;6309936;22;19953;-86
2022/11/13 08:36:42;;;;;;;;;;;;;;;11.49;100.00;101514.97;6309922;22;19922;-86
2022/11/13 08:39:26;;;;;;;;;;;;;;;11.38;100.00;101502.69;6310609;22;19953;-87
2022/11/13 08:42:10;;;;;;;;;;;;;;;11.40;100.00;101514.03;6315198;22;20047;-83
2022/11/13 08:44:54;;;;;;;;;;;;;;;11.91;100.00;101503.81;6317898;22;19959;-86
2022/11/13 08:47:38;;;;;;;;;;;;;;;11.98;100.00;101503.22;6317011;22;19917;-87
2022/11/13 08:50:22;;;;;;;;;;;;;;;12.17;100.00;101503.09;6292794;22;19918;-86
2022/11/13 08:53:06;;;;;;;;;;;;;;;12.42;100.00;101513.03;6313094;22;19918;-84
2022/11/13 08:55:50;;;;;;;;;;;;;;;12.11;100.00;101507.19;6289773;22;20341;-86
2022/11/13 08:58:34;;;;;;;;;;;;;;;12.35;100.00;101496.03;6313640;22;19921;-87
2022/11/13 09:01:21;;;;;;;;;;;;;;;12.33;100.00;101495.31;6313459;22;19922;-88
2022/11/13 09:04:05;;;;;;;;;;;;;;;12.73;100.00;101505.53;6312730;22;19914;-83
2022/11/13 09:06:49;;;;;;;;;;;;;;;12.42;100.00;101500.59;6312328;22;19925;-84
2022/11/13 09:09:33;;;;;;;;;;;;;;;12.36;100.00;101508.34;6313318;22;19914;-86
2022/11/13 09:12:17;;;;;;;;;;;;;;;12.22;100.00;101503.50;6313650;22;19922;-85
2022/11/13 09:15:04;;;;;;;;;;;;;;;12.22;100.00;101511.50;6294172;22;19918;-86
2022/11/13 09:17:48;;;;;;;;;;;;;;;11.97;100.00;101491.75;6293621;22;19933;-85
2022/11/13 09:20:32;;;;;;;;;;;;;;;12.13;100.00;101505.22;6315286;22;19994;-84
2022/11/13 09:23:16;;;;;;;;;;;;;;;12.13;100.00;101507.88;6310551;22;19953;-85
2022/11/13 09:26:02;;;;;;;;;;;;;;;11.87;100.00;101507.72;6320709;22;19937;-86
2022/11/13 09:28:48;;;;;;;;;;;;;;;11.97;100.00;101517.47;6315196;22;19995;-84
2022/11/13 09:31:37;;;;;;;;;;;;;;;12.15;100.00;101531.66;6312851;22;19917;-86
2022/11/13 09:34:21;;;;;;;;;;;;;;;12.25;100.00;101529.78;6288748;22;19933;-86
2022/11/13 09:37:05;;;;;;;;;;;;;;;12.53;100.00;101530.63;6289875;22;19917;-87
2022/11/13 09:39:49;;;;;;;;;;;;;;;12.46;100.00;101534.84;6313305;22;19918;-86
2022/11/13 09:42:34;;;;;;;;;;;;;;;12.59;100.00;101532.66;6316255;22;19996;-87
2022/11/13 09:45:18;;;;;;;;;;;;;;;12.71;100.00;101540.28;6313136;22;19918;-85
2022/11/13 09:48:10;;;;;;;;;;;;;;;12.55;100.00;101544.59;6312231;22;19987;-84
2022/11/13 09:50:58;;;;;;;;;;;;;;;12.56;100.00;101539.09;6313650;22;19918;-85
2022/11/13 09:53:42;;;;;;;;;;;;;;;12.82;100.00;101549.84;6289438;22;19965;-85
2022/11/13 09:56:32;;;;;;;;;;;;;;;12.35;100.00;101550.03;6287490;22;20006;-87
2022/11/13 09:59:22;;;;;;;;;;;;;;;12.55;100.00;101549.91;6311625;22;19918;-85
2022/11/13 10:02:06;;;;;;;;;;;;;;;12.67;100.00;101560.16;6313298;22;19988;-86
2022/11/13 10:04:57;;;;;;;;;;;;;;;12.74;100.00;101544.44;6326886;22;19925;-81
2022/11/13 10:07:53;;;;;;;;;;;;;;;12.85;100.00;101553.06;6332079;22;19970;-83
2022/11/13 10:10:39;;;;;;;;;;;;;;;12.75;100.00;101546.97;6333791;22;20006;-82
2022/11/13 10:13:26;;;;;;;;;;;;;;;12.90;100.00;101532.13;6335012;22;19925;-83
2022/11/13 10:16:19;;;;;;;;;;;;;;;12.95;100.00;101535.19;6332814;22;19959;-85
2022/11/13 10:19:10;;;;;;;;;;;;;;;12.80;100.00;101539.34;6323498;22;19963;-83
2022/11/13 10:22:13;;;;;;;;;;;;;;;12.94;100.00;101541.50;6322902;22;19921;-85
2022/11/13 10:25:01;;;;;;;;;;;;;;;13.01;100.00;101532.91;6323189;22;19921;-88
2022/11/13 10:27:55;;;;;;;;;;;;;;;13.07;100.00;101524.28;6325730;22;19917;-88
2022/11/13 10:30:39;;;;;;;;;;;;;;;13.05;100.00;101518.31;6327467;22;19988;-85
2022/11/13 10:33:27;;;;;;;;;;;;;;;13.06;100.00;101512.00;6329424;22;19937;-84
2022/11/13 10:36:13;;;;;;;;;;;;;;;12.92;100.00;101500.91;6327534;22;19967;-83
2022/11/13 10:39:01;;;;;;;;;;;;;;;12.77;100.00;101491.78;6329684;22;19917;-81
2022/11/13 10:42:09;;;;;;;;;;;;;;;12.84;100.00;101482.19;6322014;22;20953;-82
2022/11/13 10:44:58;;;;;;;;;;;;;;;12.90;100.00;101478.09;6332451;22;19938;-81
2022/11/13 10:47:45;;;;;;;;;;;;;;;13.00;100.00;101488.63;6327085;22;19956;-81
2022/11/13 10:50:30;;;;;;;;;;;;;;;12.85;100.00;101483.88;6332530;22;19910;-84
2022/11/13 10:53:16;;;;;;;;;;;;;;;13.11;100.00;101473.31;6330080;22;19905;-81
2022/11/13 10:56:00;;;;;;;;;;;;;;;13.24;100.00;101478.22;6333406;22;20002;-81
2022/11/13 10:58:43;;;;;;;;;;;;;;;13.31;100.00;101466.78;6332967;22;19921;-79
2022/11/13 11:01:28;;;;;;;;;;;;;;;13.19;100.00;101477.88;6332691;22;19917;-82
2022/11/13 11:04:18;;;;;;;;;;;;;;;13.19;100.00;101469.88;6307300;22;19930;-83
2022/11/13 11:07:13;;;;;;;;;;;;;;;13.42;100.00;101463.84;6331248;22;20078;-84
2022/11/13 11:09:58;;;;;;;;;;;;;;;13.19;100.00;101470.69;6328589;22;20020;-85
2022/11/13 11:12:50;;;;;;;;;;;;;;;13.28;100.00;101475.09;6314063;22;19926;-87
2022/11/13 11:15:34;;;;;;;;;;;;;;;13.61;100.00;101473.47;6289863;22;20008;-82
2022/11/13 11:18:23;;;;;;;;;;;;;;;13.80;100.00;101470.56;6312010;22;19917;-87
2022/11/13 11:21:11;;;;;;;;;;;;;;;13.84;100.00;101458.59;6315509;22;19961;-82
2022/11/13 11:24:18;;;;;;;;;;;;;;;13.79;100.00;101452.88;6314693;22;19933;-85
2022/11/13 11:27:04;;;;;;;;;;;;;;;13.68;100.00;101450.53;6317594;22;19914;-82
2022/11/13 11:29:54;;;;;;;;;;;;;;;13.38;100.00;101443.88;6317341;22;20390;-86
2022/11/13 11:32:46;;;;;;;;;;;;;;;13.16;100.00;101447.03;6321777;22;19917;-86
2022/11/13 11:35:33;;;;;;;;;;;;;;;13.42;100.00;101428.41;6324819;22;19918;-88
2022/11/13 11:38:25;;;;;;;;;;;;;;;13.02;100.00;101417.47;6313955;22;19972;-85
2022/11/13 11:41:13;;;;;;;;;;;;;;;12.83;100.00;101395.41;6312199;22;19945;-86
2022/11/13 11:44:12;;;;;;;;;;;;;;;12.74;100.00;101401.66;6311243;22;19922;-86
2022/11/13 11:46:56;;;;;;;;;;;;;;;12.78;100.00;101399.50;6313857;22;19918;-88
2022/11/13 11:49:41;;;;;;;;;;;;;;;12.99;100.00;101394.69;6311928;22;19933;-87
2022/11/13 11:52:31;;;;;;;;;;;;;;;12.94;100.00;101387.16;6315876;22;19917;-88
2022/11/13 11:55:30;;;;;;;;;;;;;;;12.95;100.00;101399.50;6233987;22;20368;-88
2022/11/13 11:58:37;;;;;;;;;;;;;;;12.97;100.00;101386.00;6314867;22;19956;-87
2022/11/13 12:01:30;;;;;;;;;;;;;;;12.99;100.00;101380.56;6315925;22;19921;-89
2022/11/13 12:04:31;;;;;;;;;;;;;;;13.06;100.00;101368.28;6301667;22;19917;-85
2022/11/13 12:07:37;;;;;;;;;;;;;;;13.40;100.00;101355.84;6325193;22;19958;-83
2022/11/13 12:10:28;;;;;;;;;;;;;;;13.64;100.00;101358.59;6325343;22;19921;-86
2022/11/13 12:13:17;;;;;;;;;;;;;;;13.74;100.00;101353.97;6320522;22;20321;-83
2022/11/13 12:16:32;;;;;;;;;;;;;;;13.80;100.00;101353.31;6323133;22;19917;-89
2022/11/13 12:19:52;;;;;;;;;;;;;;;13.83;100.00;101347.66;6328605;22;19928;-87
2022/11/13 12:22:38;;;;;;;;;;;;;;;13.55;100.00;101338.25;6212900;23;19911;-86
2022/11/13 12:25:45;;;;;;;;;;;;;;;13.67;100.00;101344.13;6324870;22;19925;-86
2022/11/13 12:28:38;;;;;;;;;;;;;;;13.59;100.00;101344.09;6325200;22;19913;-85
2022/11/13 12:34:36;;;;;;;;;;;;;;;13.41;100.00;101346.84;6323834;22;19918;-85
2022/11/13 12:37:41;;;;;;;;;;;;;;;13.35;100.00;101334.19;6319773;22;19921;-85
2022/11/13 12:40:47;;;;;;;;;;;;;;;13.39;100.00;101328.38;6328791;22;19937;-82
2022/11/13 12:43:56;;;;;;;;;;;;;;;13.34;100.00;101329.84;6324397;22;19934;-84
2022/11/13 12:46:41;;;;;;;;;;;;;;;13.26;100.00;101321.81;6329684;22;19921;-84
2022/11/13 12:49:26;;;;;;;;;;;;;;;13.22;100.00;101313.34;6323844;22;19922;-82
2022/11/13 12:52:31;;;;;;;;;;;;;;;13.32;100.00;101316.69;6320397;22;19918;-85
2022/11/13 12:55:33;;;;;;;;;;;;;;;13.34;100.00;101313.88;6288092;22;19961;-84
2022/11/13 12:58:23;;;;;;;;;;;;;;;13.35;100.00;101310.22;6311626;22;20340;-85
2022/11/13 13:01:10;;;;;;;;;;;;;;;13.36;100.00;101309.22;6312374;22;20341;-85
2022/11/13 13:04:13;;;;;;;;;;;;;;;13.43;100.00;101300.44;6287117;22;19921;-87
2022/11/13 13:07:06;;;;;;;;;;;;;;;13.28;100.00;101310.03;6310265;22;20270;-82
2022/11/13 13:09:57;;;;;;;;;;;;;;;13.22;100.00;101304.53;6309618;22;20000;-85
2022/11/13 13:12:48;;;;;;;;;;;;;;;13.21;100.00;101295.69;6311173;22;19985;-81
2022/11/13 13:15:37;;;;;;;;;;;;;;;13.27;100.00;101295.06;6288797;22;20001;-84
2022/11/13 13:18:28;;;;;;;;;;;;;;;13.39;100.00;101300.91;6292612;22;19925;-85
2022/11/13 13:21:15;;;;;;;;;;;;;;;13.36;100.00;101286.09;6313045;22;19961;-84
2022/11/13 13:24:06;;;;;;;;;;;;;;;13.42;100.00;101284.63;6313429;22;19918;-83
2022/11/13 13:26:50;;;;;;;;;;;;;;;13.52;100.00;101288.00;6309804;22;20245;-82
2022/11/13 13:29:34;;;;;;;;;;;;;;;13.67;100.00;101278.34;6309371;22;20384;-84
2022/11/13 13:32:22;;;;;;;;;;;;;;;13.78;100.00;101278.06;6285582;22;19976;-83
2022/11/13 13:35:14;;;;;;;;;;;;;;;14.08;100.00;101275.75;6309677;22;19918;-83
2022/11/13 13:38:05;;;;;;;;;;;;;;;13.90;100.00;101279.38;6309421;22;19918;-82
2022/11/13 13:40:51;;;;;;;;;;;;;;;14.15;100.00;101272.22;6309842;22;20349;-83
2022/11/13 13:43:42;;;;;;;;;;;;;;;13.89;100.00;101269.72;6286436;22;20250;-83
2022/11/13 13:46:28;;;;;;;;;;;;;;;13.80;100.00;101273.38;6309505;22;19936;-82
2022/11/13 13:49:15;;;;;;;;;;;;;;;13.99;100.00;101269.56;6309069;22;20431;-80
2022/11/13 13:51:58;;;;;;;;;;;;;;;14.21;100.00;101266.25;6308384;22;19946;-82
2022/11/13 13:54:44;;;;;;;;;;;;;;;13.85;100.00;101263.03;6306428;22;20338;-83
2022/11/13 13:57:29;;;;;;;;;;;;;;;13.70;100.00;101262.03;6306092;22;19917;-82
2022/11/13 14:00:14;;;;;;;;;;;;;;;13.74;100.00;101263.38;6306246;22;20245;-83
2022/11/13 14:02:58;;;;;;;;;;;;;;;13.59;100.00;101262.34;6306506;22;19961;-82
2022/11/13 14:05:42;;;;;;;;;;;;;;;13.76;100.00;101272.03;6306750;22;19937;-81
2022/11/13 14:08:26;;;;;;;;;;;;;;;13.72;100.00;101261.91;6306709;22;19964;-82
2022/11/13 14:11:17;;;;;;;;;;;;;;;13.52;100.00;101253.38;6308454;22;19956;-81
2022/11/13 14:14:19;;;;;;;;;;;;;;;13.75;100.00;101254.41;6308650;22;19918;-80